sensor_id;sensor_type;location;lat;lon;timestamp;pressure;altitude;pressure_sealevel;temperature;humidity
25238;BME280;13185;50.872;5.306;2023-02-03T00:00:43;102397.75;;;8.26;100.00
25238;BME280;13185;50.872;5.306;2023-02-03T00:03:09;102371.91;;;8.26;100.00
25238;BME280;13185;50.872;5.306;2023-02-03T00:05:35;102362.13;;;8.25;100.00
25238;BME280;13185;50.872;5.306;2023-02-03T00:08:02;102368.41;;;8.24;100.00
25238;BME280;13185;50.872;5.306;2023-02-03T00:10:28;102349.66;;;8.26;100.00
25238;BME280;13185;50.872;5.306;2023-02-03T00:12:54;102329.25;;;8.23;100.00
25238;BME280;13185;50.872;5.306;2023-02-03T00:15:20;102337.22;;;8.25;100.00
25238;BME280;13185;50.872;5.306;2023-02-03T00:17:47;102339.94;;;8.23;100.00
25238;BME280;13185;50.872;5.306;2023-02-03T00:20:13;102330.13;;;8.24;100.00
25238;BME280;13185;50.872;5.306;2023-02-03T00:22:39;102329.25;;;8.23;100.00
25238;BME280;13185;50.872;5.306;2023-02-03T00:25:05;102326.56;;;8.23;100.00
25238;BME280;13185;50.872;5.306;2023-02-03T00:27:31;102328.31;;;8.24;100.00
25238;BME280;13185;50.872;5.306;2023-02-03T00:29:57;102339.94;;;8.23;100.00
25238;BME280;13185;50.872;5.306;2023-02-03T00:32:22;102323.91;;;8.23;100.00
25238;BME280;13185;50.872;5.306;2023-02-03T00:34:47;102336.34;;;8.24;100.00
25238;BME280;13185;50.872;5.306;2023-02-03T00:37:13;102332.78;;;8.24;100.00
25238;BME280;13185;50.872;5.306;2023-02-03T00:39:38;102331.91;;;8.23;100.00
25238;BME280;13185;50.872;5.306;2023-02-03T00:42:04;102325.66;;;8.23;100.00
25238;BME280;13185;50.872;5.306;2023-02-03T00:44:30;102330.13;;;8.22;100.00
25238;BME280;13185;50.872;5.306;2023-02-03T00:46:56;102340.84;;;8.22;100.00
25238;BME280;13185;50.872;5.306;2023-02-03T00:49:21;102343.50;;;8.22;100.00
25238;BME280;13185;50.872;5.306;2023-02-03T00:51:48;102353.38;;;8.20;100.00
25238;BME280;13185;50.872;5.306;2023-02-03T00:54:13;102352.56;;;8.18;100.00
25238;BME280;13185;50.872;5.306;2023-02-03T00:56:40;102337.44;;;8.17;100.00
25238;BME280;13185;50.872;5.306;2023-02-03T00:59:05;102349.06;;;8.16;100.00
25238;BME280;13185;50.872;5.306;2023-02-03T01:01:32;102358.88;;;8.16;100.00
25238;BME280;13185;50.872;5.306;2023-02-03T01:03:57;102361.53;;;8.16;100.00
25238;BME280;13185;50.872;5.306;2023-02-03T01:06:23;102344.63;;;8.15;100.00
25238;BME280;13185;50.872;5.306;2023-02-03T01:08:49;102337.56;;;8.13;100.00
25238;BME280;13185;50.872;5.306;2023-02-03T01:11:23;102343.81;;;8.13;100.00
25238;BME280;13185;50.872;5.306;2023-02-03T01:13:50;102338.47;;;8.13;100.00
25238;BME280;13185;50.872;5.306;2023-02-03T01:16:17;102362.53;;;8.11;100.00
25238;BME280;13185;50.872;5.306;2023-02-03T01:18:43;102374.09;;;8.12;100.00
25238;BME280;13185;50.872;5.306;2023-02-03T01:21:12;102382.97;;;8.14;100.00
25238;BME280;13185;50.872;5.306;2023-02-03T01:23:38;102377.63;;;8.14;100.00
25238;BME280;13185;50.872;5.306;2023-02-03T01:26:05;102379.44;;;8.14;100.00
25238;BME280;13185;50.872;5.306;2023-02-03T01:28:31;102385.59;;;8.16;100.00
25238;BME280;13185;50.872;5.306;2023-02-03T01:30:57;102372.28;;;8.14;100.00
25238;BME280;13185;50.872;5.306;2023-02-03T01:33:32;102384.72;;;8.15;100.00
25238;BME280;13185;50.872;5.306;2023-02-03T01:35:59;102384.78;;;8.14;100.00
25238;BME280;13185;50.872;5.306;2023-02-03T01:38:25;102385.66;;;8.14;100.00
25238;BME280;13185;50.872;5.306;2023-02-03T01:40:51;102382.13;;;8.12;100.00
25238;BME280;13185;50.872;5.306;2023-02-03T01:43:31;102388.34;;;8.13;100.00
25238;BME280;13185;50.872;5.306;2023-02-03T01:46:01;102381.22;;;8.13;100.00
25238;BME280;13185;50.872;5.306;2023-02-03T01:48:31;102395.47;;;8.14;100.00
25238;BME280;13185;50.872;5.306;2023-02-03T01:50:59;102384.78;;;8.12;100.00
25238;BME280;13185;50.872;5.306;2023-02-03T01:53:26;102394.59;;;8.13;100.00
25238;BME280;13185;50.872;5.306;2023-02-03T01:55:52;102394.59;;;8.13;100.00
25238;BME280;13185;50.872;5.306;2023-02-03T01:58:28;102393.69;;;8.13;100.00
25238;BME280;13185;50.872;5.306;2023-02-03T02:00:57;102394.59;;;8.13;100.00
25238;BME280;13185;50.872;5.306;2023-02-03T02:03:33;102376.75;;;8.14;100.00
25238;BME280;13185;50.872;5.306;2023-02-03T02:06:11;102379.38;;;8.15;100.00
25238;BME280;13185;50.872;5.306;2023-02-03T02:08:41;102382.09;;;8.14;100.00
25238;BME280;13185;50.872;5.306;2023-02-03T02:11:08;102386.47;;;8.16;100.00
25238;BME280;13185;50.872;5.306;2023-02-03T02:13:34;102390.84;;;8.19;100.00
25238;BME280;13185;50.872;5.306;2023-02-03T02:35:05;102356.00;;;8.22;100.00
25238;BME280;13185;50.872;5.306;2023-02-03T02:37:54;102347.97;;;8.23;100.00
25238;BME280;13185;50.872;5.306;2023-02-03T02:43:41;102350.63;;;8.23;100.00
25238;BME280;13185;50.872;5.306;2023-02-03T02:46:22;102359.47;;;8.25;100.00
25238;BME280;13185;50.872;5.306;2023-02-03T02:48:54;102346.94;;;8.27;100.00
25238;BME280;13185;50.872;5.306;2023-02-03T02:51:22;102349.53;;;8.29;100.00
25238;BME280;13185;50.872;5.306;2023-02-03T02:53:53;102348.66;;;8.28;100.00
25238;BME280;13185;50.872;5.306;2023-02-03T02:56:22;102343.31;;;8.28;100.00
25238;BME280;13185;50.872;5.306;2023-02-03T02:58:49;102336.13;;;8.30;100.00
25238;BME280;13185;50.872;5.306;2023-02-03T03:01:16;102330.78;;;8.30;100.00
25238;BME280;13185;50.872;5.306;2023-02-03T03:03:43;102333.41;;;8.32;100.00
25238;BME280;13185;50.872;5.306;2023-02-03T03:09:04;102353.84;;;8.33;100.00
25238;BME280;13185;50.872;5.306;2023-02-03T03:11:38;102360.97;;;8.34;100.00
25238;BME280;13185;50.872;5.306;2023-02-03T03:14:06;102367.25;;;8.34;100.00
25238;BME280;13185;50.872;5.306;2023-02-03T03:16:36;102376.13;;;8.35;100.00
25238;BME280;13185;50.872;5.306;2023-02-03T03:19:09;102363.63;;;8.35;100.00
25238;BME280;13185;50.872;5.306;2023-02-03T03:21:45;102342.28;;;8.34;100.00
25238;BME280;13185;50.872;5.306;2023-02-03T03:24:16;102344.03;;;8.33;100.00
25238;BME280;13185;50.872;5.306;2023-02-03T03:26:50;102349.38;;;8.33;100.00
25238;BME280;13185;50.872;5.306;2023-02-03T03:29:21;102346.72;;;8.33;100.00
25238;BME280;13185;50.872;5.306;2023-02-03T03:31:49;102359.22;;;8.34;100.00
25238;BME280;13185;50.872;5.306;2023-02-03T03:34:15;102369.91;;;8.33;100.00
25238;BME280;13185;50.872;5.306;2023-02-03T03:37:00;102367.25;;;8.34;100.00
25238;BME280;13185;50.872;5.306;2023-02-03T03:39:44;102381.47;;;8.33;100.00
25238;BME280;13185;50.872;5.306;2023-02-03T03:42:24;102377.88;;;8.36;100.00
25238;BME280;13185;50.872;5.306;2023-02-03T03:45:18;102378.78;;;8.33;100.00
25238;BME280;13185;50.872;5.306;2023-02-03T03:47:57;102382.34;;;8.35;100.00
25238;BME280;13185;50.872;5.306;2023-02-03T03:50:48;102360.97;;;8.35;100.00
25238;BME280;13185;50.872;5.306;2023-02-03T03:53:17;102360.09;;;8.35;100.00
25238;BME280;13185;50.872;5.306;2023-02-03T03:55:47;102353.88;;;8.34;100.00
25238;BME280;13185;50.872;5.306;2023-02-03T03:58:19;102364.56;;;8.34;100.00
25238;BME280;13185;50.872;5.306;2023-02-03T04:00:47;102352.06;;;8.35;100.00
25238;BME280;13185;50.872;5.306;2023-02-03T04:03:15;102353.84;;;8.33;100.00
25238;BME280;13185;50.872;5.306;2023-02-03T04:05:42;102354.72;;;8.33;100.00
25238;BME280;13185;50.872;5.306;2023-02-03T04:08:07;102359.19;;;8.33;100.00
25238;BME280;13185;50.872;5.306;2023-02-03T04:10:35;102361.00;;;8.32;100.00
25238;BME280;13185;50.872;5.306;2023-02-03T04:13:02;102345.88;;;8.31;100.00
25238;BME280;13185;50.872;5.306;2023-02-03T04:15:32;102337.00;;;8.31;100.00
25238;BME280;13185;50.872;5.306;2023-02-03T04:17:57;102334.38;;;8.29;100.00
25238;BME280;13185;50.872;5.306;2023-02-03T04:20:26;102332.56;;;8.30;100.00
25238;BME280;13185;50.872;5.306;2023-02-03T04:22:52;102316.53;;;8.30;100.00
25238;BME280;13185;50.872;5.306;2023-02-03T04:25:18;102321.94;;;8.28;100.00
25238;BME280;13185;50.872;5.306;2023-02-03T04:27:43;102320.13;;;8.29;100.00
25238;BME280;13185;50.872;5.306;2023-02-03T04:30:10;102323.69;;;8.29;100.00
25238;BME280;13185;50.872;5.306;2023-02-03T04:32:36;102316.59;;;8.28;100.00
25238;BME280;13185;50.872;5.306;2023-02-03T04:35:02;102340.66;;;8.28;100.00
25238;BME280;13185;50.872;5.306;2023-02-03T04:37:29;102331.75;;;8.28;100.00
25238;BME280;13185;50.872;5.306;2023-02-03T04:39:55;102332.63;;;8.28;100.00
25238;BME280;13185;50.872;5.306;2023-02-03T04:42:20;102335.31;;;8.28;100.00
25238;BME280;13185;50.872;5.306;2023-02-03T04:44:46;102342.41;;;8.29;100.00
25238;BME280;13185;50.872;5.306;2023-02-03T04:47:12;102353.09;;;8.29;100.00
25238;BME280;13185;50.872;5.306;2023-02-03T04:49:38;102341.47;;;8.30;100.00
25238;BME280;13185;50.872;5.306;2023-02-03T04:52:04;102353.09;;;8.29;100.00
25238;BME280;13185;50.872;5.306;2023-02-03T04:54:29;102351.28;;;8.30;100.00
25238;BME280;13185;50.872;5.306;2023-02-03T04:56:55;102362.84;;;8.30;100.00
25238;BME280;13185;50.872;5.306;2023-02-03T04:59:20;102351.28;;;8.30;100.00
25238;BME280;13185;50.872;5.306;2023-02-03T05:01:45;102353.09;;;8.29;100.00
25238;BME280;13185;50.872;5.306;2023-02-03T05:04:11;102353.09;;;8.29;100.00
25238;BME280;13185;50.872;5.306;2023-02-03T05:06:36;102364.59;;;8.31;100.00
25238;BME280;13185;50.872;5.306;2023-02-03T05:09:02;102360.22;;;8.29;100.00
25238;BME280;13185;50.872;5.306;2023-02-03T05:11:28;102353.09;;;8.29;100.00
25238;BME280;13185;50.872;5.306;2023-02-03T05:13:54;102347.75;;;8.29;100.00
25238;BME280;13185;50.872;5.306;2023-02-03T05:16:19;102356.69;;;8.28;100.00
25238;BME280;13185;50.872;5.306;2023-02-03T05:18:45;102341.59;;;8.27;100.00
25238;BME280;13185;50.872;5.306;2023-02-03T05:21:10;102342.44;;;8.28;100.00
25238;BME280;13185;50.872;5.306;2023-02-03T05:23:36;102344.25;;;8.27;100.00
25238;BME280;13185;50.872;5.306;2023-02-03T05:26:04;102334.50;;;8.26;100.00
25238;BME280;13185;50.872;5.306;2023-02-03T05:28:29;102334.50;;;8.26;100.00
25238;BME280;13185;50.872;5.306;2023-02-03T05:30:59;102334.53;;;8.25;100.00
25238;BME280;13185;50.872;5.306;2023-02-03T05:33:25;102336.28;;;8.26;100.00
25238;BME280;13185;50.872;5.306;2023-02-03T05:35:50;102346.09;;;8.25;100.00
25238;BME280;13185;50.872;5.306;2023-02-03T05:38:16;102352.38;;;8.24;100.00
25238;BME280;13185;50.872;5.306;2023-02-03T05:40:41;102360.41;;;8.24;100.00
25238;BME280;13185;50.872;5.306;2023-02-03T05:43:27;102350.53;;;8.26;100.00
25238;BME280;13185;50.872;5.306;2023-02-03T05:45:52;102347.91;;;8.25;100.00
25238;BME280;13185;50.872;5.306;2023-02-03T05:48:18;102357.75;;;8.23;100.00
25238;BME280;13185;50.872;5.306;2023-02-03T05:50:43;102361.31;;;8.23;100.00
25238;BME280;13185;50.872;5.306;2023-02-03T05:53:09;102367.53;;;8.24;100.00
25238;BME280;13185;50.872;5.306;2023-02-03T05:55:36;102369.28;;;8.25;100.00
25238;BME280;13185;50.872;5.306;2023-02-03T05:58:02;102360.41;;;8.23;100.00
25238;BME280;13185;50.872;5.306;2023-02-03T06:00:28;102376.44;;;8.24;100.00
25238;BME280;13185;50.872;5.306;2023-02-03T06:02:56;102388.81;;;8.27;100.00
25238;BME280;13185;50.872;5.306;2023-02-03T06:05:22;102390.66;;;8.25;100.00
25238;BME280;13185;50.872;5.306;2023-02-03T06:07:51;102384.44;;;8.24;100.00
25238;BME280;13185;50.872;5.306;2023-02-03T06:10:17;102374.63;;;8.25;100.00
25238;BME280;13185;50.872;5.306;2023-02-03T06:12:42;102390.63;;;8.26;100.00
25238;BME280;13185;50.872;5.306;2023-02-03T06:15:09;102389.75;;;8.26;100.00
25238;BME280;13185;50.872;5.306;2023-02-03T06:17:35;102395.97;;;8.26;99.95
25238;BME280;13185;50.872;5.306;2023-02-03T06:20:03;102379.91;;;8.26;99.72
25238;BME280;13185;50.872;5.306;2023-02-03T06:22:29;102399.50;;;8.27;99.55
25238;BME280;13185;50.872;5.306;2023-02-03T06:24:54;102381.66;;;8.27;99.30
25238;BME280;13185;50.872;5.306;2023-02-03T06:27:19;102378.13;;;8.27;99.32
25238;BME280;13185;50.872;5.306;2023-02-03T06:29:45;102401.25;;;8.28;99.02
25238;BME280;13185;50.872;5.306;2023-02-03T06:32:10;102408.34;;;8.29;99.08
25238;BME280;13185;50.872;5.306;2023-02-03T06:34:36;102394.09;;;8.28;98.87
25238;BME280;13185;50.872;5.306;2023-02-03T06:37:01;102380.75;;;8.28;98.77
25238;BME280;13185;50.872;5.306;2023-02-03T06:39:27;102390.50;;;8.29;98.86
25238;BME280;13185;50.872;5.306;2023-02-03T06:41:52;102398.53;;;8.29;98.99
25238;BME280;13185;50.872;5.306;2023-02-03T06:44:22;102380.75;;;8.28;98.73
25238;BME280;13185;50.872;5.306;2023-02-03T06:46:47;102386.09;;;8.28;98.91
25238;BME280;13185;50.872;5.306;2023-02-03T06:49:15;102388.72;;;8.30;98.96
25238;BME280;13185;50.872;5.306;2023-02-03T06:51:41;102386.09;;;8.28;98.90
25238;BME280;13185;50.872;5.306;2023-02-03T06:54:07;102380.69;;;8.30;98.61
25238;BME280;13185;50.872;5.306;2023-02-03T06:56:33;102372.69;;;8.30;98.84
25238;BME280;13185;50.872;5.306;2023-02-03T06:58:58;102371.81;;;8.29;98.92
25238;BME280;13185;50.872;5.306;2023-02-03T07:01:24;102371.84;;;8.28;99.24
25238;BME280;13185;50.872;5.306;2023-02-03T07:03:50;102371.84;;;8.28;99.15
25238;BME280;13185;50.872;5.306;2023-02-03T07:06:16;102367.44;;;8.27;99.29
25238;BME280;13185;50.872;5.306;2023-02-03T07:08:42;102372.78;;;8.27;99.38
25238;BME280;13185;50.872;5.306;2023-02-03T07:11:10;102390.63;;;8.26;99.76
25238;BME280;13185;50.872;5.306;2023-02-03T07:13:35;102380.84;;;8.25;99.49
25238;BME280;13185;50.872;5.306;2023-02-03T07:16:01;102371.91;;;8.26;99.62
25238;BME280;13185;50.872;5.306;2023-02-03T07:18:26;102350.53;;;8.26;99.83
25238;BME280;13185;50.872;5.306;2023-02-03T07:20:52;102350.53;;;8.26;99.97
25238;BME280;13185;50.872;5.306;2023-02-03T07:23:18;102361.22;;;8.26;99.94
25238;BME280;13185;50.872;5.306;2023-02-03T07:25:44;102356.75;;;8.27;99.79
25238;BME280;13185;50.872;5.306;2023-02-03T07:28:10;102358.50;;;8.28;99.67
25238;BME280;13185;50.872;5.306;2023-02-03T07:30:35;102370.97;;;8.27;99.80
25238;BME280;13185;50.872;5.306;2023-02-03T07:33:01;102376.22;;;8.30;99.59
25238;BME280;13185;50.872;5.306;2023-02-03T07:35:27;102368.19;;;8.30;99.79
25238;BME280;13185;50.872;5.306;2023-02-03T07:37:53;102365.47;;;8.32;99.70
25238;BME280;13185;50.872;5.306;2023-02-03T07:40:20;102371.75;;;8.31;99.54
25238;BME280;13185;50.872;5.306;2023-02-03T07:42:47;102367.28;;;8.31;99.74
25238;BME280;13185;50.872;5.306;2023-02-03T07:45:15;102362.75;;;8.33;99.40
25238;BME280;13185;50.872;5.306;2023-02-03T07:47:42;102362.75;;;8.33;99.62
25238;BME280;13185;50.872;5.306;2023-02-03T07:50:09;102396.63;;;8.34;99.69
25238;BME280;13185;50.872;5.306;2023-02-03T07:52:35;102409.94;;;8.36;99.29
25238;BME280;13185;50.872;5.306;2023-02-03T07:55:01;102424.19;;;8.36;99.18
25238;BME280;13185;50.872;5.306;2023-02-03T07:57:26;102422.34;;;8.38;98.74
25238;BME280;13185;50.872;5.306;2023-02-03T07:59:52;102417.94;;;8.37;98.77
25238;BME280;13185;50.872;5.306;2023-02-03T08:02:17;102416.13;;;8.38;98.89
25238;BME280;13185;50.872;5.306;2023-02-03T08:04:43;102421.41;;;8.39;98.96
25238;BME280;13185;50.872;5.306;2023-02-03T08:07:09;102445.47;;;8.39;98.85
25238;BME280;13185;50.872;5.306;2023-02-03T08:09:34;102432.09;;;8.39;98.59
25238;BME280;13185;50.872;5.306;2023-02-03T08:12:00;102418.75;;;8.39;98.49
25238;BME280;13185;50.872;5.306;2023-02-03T08:14:25;102418.75;;;8.39;98.65
25238;BME280;13185;50.872;5.306;2023-02-03T08:16:51;102416.94;;;8.40;98.85
25238;BME280;13185;50.872;5.306;2023-02-03T08:19:16;102410.63;;;8.43;98.53
25238;BME280;13185;50.872;5.306;2023-02-03T08:21:41;102426.63;;;8.44;98.67
25238;BME280;13185;50.872;5.306;2023-02-03T08:24:07;102429.25;;;8.46;98.59
25238;BME280;13185;50.872;5.306;2023-02-03T08:26:34;102429.31;;;8.44;98.62
25238;BME280;13185;50.872;5.306;2023-02-03T08:29:00;102421.25;;;8.46;98.73
25238;BME280;13185;50.872;5.306;2023-02-03T08:31:25;102419.38;;;8.48;98.59
25238;BME280;13185;50.872;5.306;2023-02-03T08:33:51;102436.31;;;8.48;98.60
25238;BME280;13185;50.872;5.306;2023-02-03T08:36:16;102423.75;;;8.50;98.96
25238;BME280;13185;50.872;5.306;2023-02-03T08:38:43;102425.50;;;8.51;98.78
25238;BME280;13185;50.872;5.306;2023-02-03T08:41:15;102434.34;;;8.53;98.89
25238;BME280;13185;50.872;5.306;2023-02-03T08:43:43;102428.13;;;8.53;98.78
25238;BME280;13185;50.872;5.306;2023-02-03T08:46:10;102422.72;;;8.54;98.73
25238;BME280;13185;50.872;5.306;2023-02-03T08:48:36;102431.66;;;8.55;98.56
25238;BME280;13185;50.872;5.306;2023-02-03T08:51:09;102444.09;;;8.56;99.04
25238;BME280;13185;50.872;5.306;2023-02-03T08:53:35;102428.94;;;8.56;99.06
25238;BME280;13185;50.872;5.306;2023-02-03T08:56:09;102450.28;;;8.58;98.90
25238;BME280;13185;50.872;5.306;2023-02-03T08:58:35;102458.28;;;8.58;98.81
25238;BME280;13185;50.872;5.306;2023-02-03T09:01:12;102457.38;;;8.59;98.97
25238;BME280;13185;50.872;5.306;2023-02-03T09:03:38;102455.56;;;8.59;98.79
25238;BME280;13185;50.872;5.306;2023-02-03T09:06:05;102463.53;;;8.61;98.89
25238;BME280;13185;50.872;5.306;2023-02-03T09:08:31;102478.72;;;8.60;99.27
25238;BME280;13185;50.872;5.306;2023-02-03T09:10:57;102483.19;;;8.60;99.06
25238;BME280;13185;50.872;5.306;2023-02-03T09:13:23;102482.19;;;8.62;99.01
25238;BME280;13185;50.872;5.306;2023-02-03T09:15:48;102472.31;;;8.64;98.86
25238;BME280;13185;50.872;5.306;2023-02-03T09:18:14;102484.81;;;8.65;98.94
25238;BME280;13185;50.872;5.306;2023-02-03T09:20:39;102492.78;;;8.67;98.90
25238;BME280;13185;50.872;5.306;2023-02-03T09:23:05;102504.28;;;8.69;98.81
25238;BME280;13185;50.872;5.306;2023-02-03T09:25:31;102506.03;;;8.70;98.80
25238;BME280;13185;50.872;5.306;2023-02-03T09:27:57;102506.00;;;8.72;98.95
25238;BME280;13185;50.872;5.306;2023-02-03T09:30:22;102495.34;;;8.70;99.22
25238;BME280;13185;50.872;5.306;2023-02-03T09:32:51;102489.94;;;8.72;99.97
25238;BME280;13185;50.872;5.306;2023-02-03T09:35:19;102490.94;;;8.69;100.00
25238;BME280;13185;50.872;5.306;2023-02-03T09:37:45;102496.28;;;8.69;100.00
25238;BME280;13185;50.872;5.306;2023-02-03T09:40:19;102489.22;;;8.66;100.00
25238;BME280;13185;50.872;5.306;2023-02-03T09:43:12;102488.44;;;8.63;100.00
25238;BME280;13185;50.872;5.306;2023-02-03T09:45:41;102479.59;;;8.61;100.00
25238;BME280;13185;50.872;5.306;2023-02-03T09:48:17;102484.97;;;8.59;100.00
25238;BME280;13185;50.872;5.306;2023-02-03T09:50:45;102480.56;;;8.58;100.00
25238;BME280;13185;50.872;5.306;2023-02-03T09:53:36;102478.75;;;8.59;100.00
25238;BME280;13185;50.872;5.306;2023-02-03T09:56:22;102481.38;;;8.60;100.00
25238;BME280;13185;50.872;5.306;2023-02-03T09:58:50;102485.81;;;8.61;100.00
25238;BME280;13185;50.872;5.306;2023-02-03T10:01:17;102467.97;;;8.62;100.00
25238;BME280;13185;50.872;5.306;2023-02-03T10:16:45;102482.13;;;8.65;100.00
25238;BME280;13185;50.872;5.306;2023-02-03T10:19:19;102482.13;;;8.65;100.00
25238;BME280;13185;50.872;5.306;2023-02-03T10:21:52;102486.56;;;8.66;100.00
25238;BME280;13185;50.872;5.306;2023-02-03T10:24:36;102490.94;;;8.69;100.00
25238;BME280;13185;50.872;5.306;2023-02-03T10:27:03;102483.78;;;8.70;100.00
25238;BME280;13185;50.872;5.306;2023-02-03T10:29:38;102502.41;;;8.73;100.00
25238;BME280;13185;50.872;5.306;2023-02-03T10:32:13;102513.03;;;8.74;100.00
25238;BME280;13185;50.872;5.306;2023-02-03T10:34:38;102504.06;;;8.77;100.00
25238;BME280;13185;50.872;5.306;2023-02-03T10:37:25;102505.81;;;8.78;100.00
25238;BME280;13185;50.872;5.306;2023-02-03T10:39:52;102508.38;;;8.81;100.00
25238;BME280;13185;50.872;5.306;2023-02-03T10:42:19;102517.09;;;8.87;100.00
25238;BME280;13185;50.872;5.306;2023-02-03T10:44:52;102532.13;;;8.91;100.00
25238;BME280;13185;50.872;5.306;2023-02-03T10:47:36;102525.72;;;8.97;100.00
25238;BME280;13185;50.872;5.306;2023-02-03T10:50:21;102533.59;;;9.02;100.00
25238;BME280;13185;50.872;5.306;2023-02-03T10:52:47;102540.59;;;9.06;100.00
25238;BME280;13185;50.872;5.306;2023-02-03T10:57:52;102547.72;;;9.07;100.00
25238;BME280;13185;50.872;5.306;2023-02-03T11:02:54;102542.38;;;9.05;100.00
25238;BME280;13185;50.872;5.306;2023-02-03T11:05:21;102529.00;;;9.05;100.00
25238;BME280;13185;50.872;5.306;2023-02-03T11:07:49;102527.25;;;9.04;100.00
25238;BME280;13185;50.872;5.306;2023-02-03T11:10:35;102524.59;;;9.04;100.00
25238;BME280;13185;50.872;5.306;2023-02-03T11:13:24;102513.00;;;9.04;100.00
25238;BME280;13185;50.872;5.306;2023-02-03T11:15:50;102500.44;;;9.06;100.00
25238;BME280;13185;50.872;5.306;2023-02-03T11:18:52;102503.00;;;9.10;100.00
25238;BME280;13185;50.872;5.306;2023-02-03T11:26:20;102498.28;;;9.18;100.00
25238;BME280;13185;50.872;5.306;2023-02-03T11:28:48;102492.81;;;9.21;100.00
25238;BME280;13185;50.872;5.306;2023-02-03T11:31:38;102495.44;;;9.23;100.00
25238;BME280;13185;50.872;5.306;2023-02-03T11:34:06;102477.56;;;9.23;100.00
25238;BME280;13185;50.872;5.306;2023-02-03T11:36:39;102479.25;;;9.26;100.00
25238;BME280;13185;50.872;5.306;2023-02-03T11:39:29;102486.28;;;9.30;100.00
25238;BME280;13185;50.872;5.306;2023-02-03T11:41:59;102481.69;;;9.34;100.00
25238;BME280;13185;50.872;5.306;2023-02-03T11:44:27;102493.94;;;9.41;100.00
25238;BME280;13185;50.872;5.306;2023-02-03T11:47:06;102475.19;;;9.41;100.00
25238;BME280;13185;50.872;5.306;2023-02-03T11:57:44;102489.66;;;9.35;100.00
25238;BME280;13185;50.872;5.306;2023-02-03T12:00:25;102491.41;;;9.36;100.00
25238;BME280;13185;50.872;5.306;2023-02-03T12:08:56;102495.94;;;9.34;100.00
25238;BME280;13185;50.872;5.306;2023-02-03T12:17:16;102492.63;;;9.26;100.00
25238;BME280;13185;50.872;5.306;2023-02-03T12:25:39;102497.06;;;9.27;100.00
25238;BME280;13185;50.872;5.306;2023-02-03T12:31:26;102496.97;;;9.30;100.00
25238;BME280;13185;50.872;5.306;2023-02-03T12:36:29;102506.75;;;9.31;100.00
25238;BME280;13185;50.872;5.306;2023-02-03T12:39:20;102506.72;;;9.33;100.00
25238;BME280;13185;50.872;5.306;2023-02-03T12:41:58;102519.28;;;9.31;100.00
25238;BME280;13185;50.872;5.306;2023-02-03T12:44:30;102509.44;;;9.31;100.00
25238;BME280;13185;50.872;5.306;2023-02-03T12:47:02;102521.13;;;9.29;100.00
25238;BME280;13185;50.872;5.306;2023-02-03T12:49:38;102509.50;;;9.30;100.00
25238;BME280;13185;50.872;5.306;2023-02-03T12:52:17;102511.34;;;9.28;100.00
25238;BME280;13185;50.872;5.306;2023-02-03T12:54:53;102505.94;;;9.29;100.00
25238;BME280;13185;50.872;5.306;2023-02-03T12:58:02;102495.22;;;9.29;100.00
25238;BME280;13185;50.872;5.306;2023-02-03T13:00:48;102491.56;;;9.32;100.00
25238;BME280;13185;50.872;5.306;2023-02-03T13:12:11;102490.81;;;9.28;100.00
25238;BME280;13185;50.872;5.306;2023-02-03T13:14:48;102494.31;;;9.30;100.00
25238;BME280;13185;50.872;5.306;2023-02-03T13:19:53;102484.47;;;9.31;100.00
25238;BME280;13185;50.872;5.306;2023-02-03T13:22:22;102485.34;;;9.31;100.00
25238;BME280;13185;50.872;5.306;2023-02-03T13:41:53;102491.34;;;9.38;100.00
25238;BME280;13185;50.872;5.306;2023-02-03T13:44:27;102496.69;;;9.39;100.00
25238;BME280;13185;50.872;5.306;2023-02-03T13:46:55;102496.69;;;9.39;100.00
25238;BME280;13185;50.872;5.306;2023-02-03T13:49:44;102495.75;;;9.40;100.00
25238;BME280;13185;50.872;5.306;2023-02-03T13:52:35;102499.28;;;9.41;100.00
25238;BME280;13185;50.872;5.306;2023-02-03T13:55:03;102498.44;;;9.40;100.00
25238;BME280;13185;50.872;5.306;2023-02-03T13:57:36;102480.56;;;9.41;100.00
25238;BME280;13185;50.872;5.306;2023-02-03T14:03:17;102496.56;;;9.42;100.00
25238;BME280;13185;50.872;5.306;2023-02-03T14:05:46;102488.47;;;9.44;100.00
25238;BME280;13185;50.872;5.306;2023-02-03T14:13:52;102500.06;;;9.44;100.00
25238;BME280;13185;50.872;5.306;2023-02-03T14:16:24;102508.03;;;9.46;100.00
25238;BME280;13185;50.872;5.306;2023-02-03T14:18:49;102509.75;;;9.48;100.00
25238;BME280;13185;50.872;5.306;2023-02-03T14:21:24;102495.44;;;9.49;100.00
25238;BME280;13185;50.872;5.306;2023-02-03T14:23:56;102506.16;;;9.49;100.00
25238;BME280;13185;50.872;5.306;2023-02-03T14:26:33;102497.19;;;9.50;100.00
25238;BME280;13185;50.872;5.306;2023-02-03T14:29:00;102506.09;;;9.51;100.00
25238;BME280;13185;50.872;5.306;2023-02-03T14:31:27;102509.66;;;9.51;100.00
25238;BME280;13185;50.872;5.306;2023-02-03T14:34:12;102512.31;;;9.51;100.00
25238;BME280;13185;50.872;5.306;2023-02-03T14:36:50;102523.09;;;9.50;100.00
25238;BME280;13185;50.872;5.306;2023-02-03T14:42:16;102525.78;;;9.50;100.00
25238;BME280;13185;50.872;5.306;2023-02-03T14:57:59;102545.34;;;9.52;100.00
25238;BME280;13185;50.872;5.306;2023-02-03T15:00:27;102556.91;;;9.52;100.00
25238;BME280;13185;50.872;5.306;2023-02-03T15:07:59;102548.66;;;9.59;100.00
25238;BME280;13185;50.872;5.306;2023-02-03T15:10:41;102544.16;;;9.61;100.00
25238;BME280;13185;50.872;5.306;2023-02-03T15:13:26;102549.50;;;9.61;100.00
25238;BME280;13185;50.872;5.306;2023-02-03T15:15:55;102539.66;;;9.61;100.00
25238;BME280;13185;50.872;5.306;2023-02-03T15:18:31;102542.28;;;9.63;100.00
25238;BME280;13185;50.872;5.306;2023-02-03T15:20:59;102545.84;;;9.63;100.00
25238;BME280;13185;50.872;5.306;2023-02-03T15:23:45;102549.41;;;9.64;100.00